Airfield :
LOGIN :

Register | Disclaimer

   EN    FR    IT 

 










Legend :    VFR   Marginal VFR   IFR   Intensive IFR   Very Intensive IFR
Visi :
Ceiling :
>= 8 km
>= 3000ft
5 to 8 km
1000 to 3000 ft
1500m to 5 km
500 to 1000 ft
800 to 1500m
200 to 500 ft
< 800m
< 200 ft
Symbols :   Thunderstorms  Fog  Heavy snow  Heavy precipitations  Wind > 20 kt
SIGMETs :     Misc.  Thunderstorms  Icing  Turbulence  Mountain Waves  Volcanic Ashes







- Airport Elevation : 172 ft
- IATA code : LPI


ESSL - Saab

CURRENT METAR :
  • 270320Z AUTO 12003KT 9999 FEW051/// SCT074/// BKN090/// 07/05 Q0999

EXPIRED METARs :
  • 270250Z AUTO 11003KT 9999 OVC100/// 06/05 Q1000
  • 270220Z AUTO 13003KT 9999 OVC100/// 06/04 Q1000
  • 270150Z AUTO VRB03KT 9999 OVC120/// 06/04 Q1000
  • 270120Z AUTO VRB01KT 9999 OVC120/// 07/04 Q1000
  • 270050Z AUTO VRB01KT 9999 OVC120/// 07/04 Q1000

TAF TAF ESSL
Valid from the 27 at 04:00 until the 27 at 12:00 UTC


270330Z 2704/2712 12004KT CAVOK
TEMPO 2704/2712 RA
No reported NOTAMs for that airfield.



MET'MAP, your aeronautical weather chart ! - Copyright ORBIFLY December 2007 - Disclaimer

ORBIFLY MET'MAP TEAM :

Programming & Development : Alexandra Zaïnal
Concept & Development : Baudouin d'Aumeries
Co-Development & Prog : Marc-Olivier Méhu
Technical & hardware support : Manuel Goepfert

Contact : metmap@orbifly.com




SOURCES & CREDITS :

   NOAA